Anita, Pennsylvania
Current Conditions -  °F | °C
As of 12:53 AM on Wednesday 22 Oct 2014 (Local Time) from KDUJ Reporting Station
Overcast Overcast  
Wind Chill: 44°   Ceiling: 1500
Heat Index: 47°   Visibility: 10mi
Dew Point: 46°   Wind: 7mph
Humidity: 97%   Direction: 350°N
Pressure: 29.98"   Gusts: NA
Location:  41°N, 78.96°W
Report Text: KDUJ 220453Z AUTO 35006KT 10SM OVC015 08/08 A2998 RMK AO2 SLP158 T00830078 401000078
Loading
Personal Weather Stations






























Interactive Weather Map New forecast layout! Learn more

10-Day Weather Forecast

Advertisements
Track Severe Weather on mobile